Machida, Japan
Current Conditions -  °F | °C
As of 3:58 PM on Sunday 26 Oct 2014 (Local Time) from RJTY Reporting Station
Scattered Clouds Scattered Clouds  
Wind Chill: 71°   Ceiling: Unl
Heat Index: 71°   Visibility: 10mi
Dew Point: 62°   Wind: 15mph
Humidity: 74%   Direction: 170°S
Pressure: 30.1"   Gusts: NA
Location:  35.56°N, 139.43°E
Report Text: RJTY 260658Z AUTO 17013KT 10SM SCT065 SCT085 22/17 A3010 RMK AO2 SLP194 T02170168
Loading
Personal Weather Stations






























Interactive Weather Map
Tropical Storm Tracking
New forecast layout! Learn more

10-Day Weather Forecast

Advertisements
Track Severe Weather on mobile